sensor_id;sensor_type;location;lat;lon;timestamp;pressure;altitude;pressure_sealevel;temperature;humidity
3524;BME280;1776;53.330;11.498;2023-04-26T00:00:12;24048.56;;;-147.39;68.64
3524;BME280;1776;53.330;11.498;2023-04-26T00:02:38;24050.59;;;-147.39;68.20
3524;BME280;1776;53.330;11.498;2023-04-26T00:05:04;24068.91;;;-147.39;68.27
3524;BME280;1776;53.330;11.498;2023-04-26T00:07:31;24054.69;;;-147.39;68.52
3524;BME280;1776;53.330;11.498;2023-04-26T00:09:56;24052.63;;;-147.39;68.59
3524;BME280;1776;53.330;11.498;2023-04-26T00:12:22;24044.50;;;-147.39;68.60
3524;BME280;1776;53.330;11.498;2023-04-26T00:14:47;24046.53;;;-147.39;68.28
3524;BME280;1776;53.330;11.498;2023-04-26T00:17:12;24072.97;;;-147.39;67.98
3524;BME280;1776;53.330;11.498;2023-04-26T00:19:37;24042.47;;;-147.39;68.49
3524;BME280;1776;53.330;11.498;2023-04-26T00:22:03;24030.28;;;-147.39;68.38
3524;BME280;1776;53.330;11.498;2023-04-26T00:24:30;24030.28;;;-147.39;68.77
3524;BME280;1776;53.330;11.498;2023-04-26T00:26:55;24026.22;;;-147.39;68.32
3524;BME280;1776;53.330;11.498;2023-04-26T00:29:21;24030.28;;;-147.39;68.37
3524;BME280;1776;53.330;11.498;2023-04-26T00:31:46;24044.50;;;-147.39;68.70
3524;BME280;1776;53.330;11.498;2023-04-26T00:34:11;24005.88;;;-147.39;68.93
3524;BME280;1776;53.330;11.498;2023-04-26T00:36:37;23975.38;;;-147.39;69.33
3524;BME280;1776;53.330;11.498;2023-04-26T00:39:02;24007.91;;;-147.39;68.45
3524;BME280;1776;53.330;11.498;2023-04-26T00:41:28;24016.03;;;-147.39;68.64
3524;BME280;1776;53.330;11.498;2023-04-26T00:43:53;24036.38;;;-147.39;68.83
3524;BME280;1776;53.330;11.498;2023-04-26T00:46:19;24005.88;;;-147.39;69.06
3524;BME280;1776;53.330;11.498;2023-04-26T00:48:45;23967.25;;;-147.39;69.30
3524;BME280;1776;53.330;11.498;2023-04-26T00:51:11;24009.94;;;-147.39;69.50
3524;BME280;1776;53.330;11.498;2023-04-26T00:53:36;24011.97;;;-147.39;69.65
3524;BME280;1776;53.330;11.498;2023-04-26T00:56:02;23957.09;;;-147.39;69.89
3524;BME280;1776;53.330;11.498;2023-04-26T00:58:31;23981.47;;;-147.39;70.01
3524;BME280;1776;53.330;11.498;2023-04-26T01:00:56;23950.97;;;-147.39;70.31
3524;BME280;1776;53.330;11.498;2023-04-26T01:03:22;23946.91;;;-147.39;71.08
3524;BME280;1776;53.330;11.498;2023-04-26T01:05:47;24099.41;;;-147.39;70.68
3524;BME280;1776;53.330;11.498;2023-04-26T01:08:13;23932.69;;;-147.39;71.22
3524;BME280;1776;53.330;11.498;2023-04-26T01:10:41;23934.72;;;-147.39;71.54
3524;BME280;1776;53.330;11.498;2023-04-26T01:13:07;23928.63;;;-147.39;71.12
3524;BME280;1776;53.330;11.498;2023-04-26T01:15:33;23908.28;;;-147.39;71.72
3524;BME280;1776;53.330;11.498;2023-04-26T01:18:00;23934.72;;;-147.39;71.52
3524;BME280;1776;53.330;11.498;2023-04-26T01:20:25;23932.69;;;-147.39;71.23
3524;BME280;1776;53.330;11.498;2023-04-26T01:22:51;23942.84;;;-147.39;71.24
3524;BME280;1776;53.330;11.498;2023-04-26T01:25:16;23926.59;;;-147.39;70.96
3524;BME280;1776;53.330;11.498;2023-04-26T01:27:42;23961.16;;;-147.39;70.97
3524;BME280;1776;53.330;11.498;2023-04-26T01:30:08;23942.84;;;-147.39;70.59
3524;BME280;1776;53.330;11.498;2023-04-26T01:32:33;23918.44;;;-147.39;70.47
3524;BME280;1776;53.330;11.498;2023-04-26T01:34:59;23910.31;;;-147.39;71.54
3524;BME280;1776;53.330;11.498;2023-04-26T01:37:25;23924.56;;;-147.39;71.61
3524;BME280;1776;53.330;11.498;2023-04-26T01:39:50;23885.91;;;-147.39;71.84
3524;BME280;1776;53.330;11.498;2023-04-26T01:42:16;23922.50;;;-147.39;71.59
3524;BME280;1776;53.330;11.498;2023-04-26T01:44:41;23892.03;;;-147.39;72.03
3524;BME280;1776;53.330;11.498;2023-04-26T01:47:06;23920.47;;;-147.39;72.20
3524;BME280;1776;53.330;11.498;2023-04-26T01:49:31;23865.59;;;-147.39;71.72
3524;BME280;1776;53.330;11.498;2023-04-26T01:51:58;23869.66;;;-147.39;72.22
3524;BME280;1776;53.330;11.498;2023-04-26T01:54:23;23853.38;;;-147.39;72.13
3524;BME280;1776;53.330;11.498;2023-04-26T01:56:48;23887.94;;;-147.39;72.32
3524;BME280;1776;53.330;11.498;2023-04-26T01:59:14;23847.28;;;-147.39;72.45
3524;BME280;1776;53.330;11.498;2023-04-26T02:01:42;23820.84;;;-147.39;72.44
3524;BME280;1776;53.330;11.498;2023-04-26T02:04:07;23920.47;;;-147.39;73.00
3524;BME280;1776;53.330;11.498;2023-04-26T02:06:33;23843.22;;;-147.39;73.54
3524;BME280;1776;53.330;11.498;2023-04-26T02:08:58;23816.78;;;-147.39;73.87
3524;BME280;1776;53.330;11.498;2023-04-26T02:11:23;23831.03;;;-147.39;73.30
3524;BME280;1776;53.330;11.498;2023-04-26T02:13:50;23792.41;;;-147.39;73.48
3524;BME280;1776;53.330;11.498;2023-04-26T02:16:16;23804.59;;;-147.39;73.09
3524;BME280;1776;53.330;11.498;2023-04-26T02:18:41;23841.19;;;-147.39;73.28
3524;BME280;1776;53.330;11.498;2023-04-26T02:21:07;23808.66;;;-147.39;72.79
3524;BME280;1776;53.330;11.498;2023-04-26T02:23:33;23855.41;;;-147.39;72.45
3524;BME280;1776;53.330;11.498;2023-04-26T02:25:58;23818.81;;;-147.39;73.01
3524;BME280;1776;53.330;11.498;2023-04-26T02:28:23;23761.91;;;-147.39;73.06
3524;BME280;1776;53.330;11.498;2023-04-26T02:30:49;23804.59;;;-147.39;73.39
3524;BME280;1776;53.330;11.498;2023-04-26T02:33:14;23820.84;;;-147.39;73.77
3524;BME280;1776;53.330;11.498;2023-04-26T02:35:40;23818.81;;;-147.39;73.37
3524;BME280;1776;53.330;11.498;2023-04-26T02:38:05;23780.19;;;-147.39;73.60
3524;BME280;1776;53.330;11.498;2023-04-26T02:40:30;23776.13;;;-147.39;73.31
3524;BME280;1776;53.330;11.498;2023-04-26T02:42:56;23841.19;;;-147.39;73.49
3524;BME280;1776;53.330;11.498;2023-04-26T02:45:21;23798.50;;;-147.39;73.28
3524;BME280;1776;53.330;11.498;2023-04-26T02:47:47;23782.22;;;-147.39;73.42
3524;BME280;1776;53.330;11.498;2023-04-26T02:50:12;23776.13;;;-147.39;73.20
3524;BME280;1776;53.330;11.498;2023-04-26T02:52:37;23800.53;;;-147.39;72.98
3524;BME280;1776;53.330;11.498;2023-04-26T02:55:03;23717.16;;;-147.39;74.00
3524;BME280;1776;53.330;11.498;2023-04-26T02:57:29;23768.00;;;-147.39;73.71
3524;BME280;1776;53.330;11.498;2023-04-26T02:59:55;23743.59;;;-147.39;73.61
3524;BME280;1776;53.330;11.498;2023-04-26T03:02:21;23765.97;;;-147.39;73.40
3524;BME280;1776;53.330;11.498;2023-04-26T03:04:46;23747.66;;;-147.39;73.55
3524;BME280;1776;53.330;11.498;2023-04-26T03:07:12;23739.53;;;-147.39;73.72
3524;BME280;1776;53.330;11.498;2023-04-26T03:09:37;23757.84;;;-147.39;73.48
3524;BME280;1776;53.330;11.498;2023-04-26T03:12:05;23721.25;;;-147.39;73.31
3524;BME280;1776;53.330;11.498;2023-04-26T03:14:30;23778.16;;;-147.39;73.76
3524;BME280;1776;53.330;11.498;2023-04-26T03:16:56;23747.66;;;-147.39;73.41
3524;BME280;1776;53.330;11.498;2023-04-26T03:19:21;23757.84;;;-147.39;73.50
3524;BME280;1776;53.330;11.498;2023-04-26T03:21:46;23725.31;;;-147.39;73.33
3524;BME280;1776;53.330;11.498;2023-04-26T03:24:11;23741.56;;;-147.39;73.56
3524;BME280;1776;53.330;11.498;2023-04-26T03:26:37;23729.38;;;-147.39;73.50
3524;BME280;1776;53.330;11.498;2023-04-26T03:29:02;23780.19;;;-147.39;73.57
3524;BME280;1776;53.330;11.498;2023-04-26T03:31:28;23751.72;;;-147.39;73.79
3524;BME280;1776;53.330;11.498;2023-04-26T03:33:53;23751.72;;;-147.39;73.78
3524;BME280;1776;53.330;11.498;2023-04-26T03:36:18;23735.47;;;-147.39;73.71
3524;BME280;1776;53.330;11.498;2023-04-26T03:38:44;23709.03;;;-147.39;74.24
3524;BME280;1776;53.330;11.498;2023-04-26T03:41:09;23690.75;;;-147.39;74.53
3524;BME280;1776;53.330;11.498;2023-04-26T03:43:35;23735.47;;;-147.39;74.13
3524;BME280;1776;53.330;11.498;2023-04-26T03:46:01;23721.25;;;-147.39;74.15
3524;BME280;1776;53.330;11.498;2023-04-26T03:48:26;23674.47;;;-147.39;74.33
3524;BME280;1776;53.330;11.498;2023-04-26T03:50:52;23713.09;;;-147.39;75.02
3524;BME280;1776;53.330;11.498;2023-04-26T03:53:17;23678.53;;;-147.39;75.37
3524;BME280;1776;53.330;11.498;2023-04-26T03:55:42;23656.19;;;-147.39;75.18
3524;BME280;1776;53.330;11.498;2023-04-26T03:58:08;23664.31;;;-147.39;75.09
3524;BME280;1776;53.330;11.498;2023-04-26T04:00:36;23698.88;;;-147.39;74.67
3524;BME280;1776;53.330;11.498;2023-04-26T04:03:01;23711.06;;;-147.39;75.29
3524;BME280;1776;53.330;11.498;2023-04-26T04:05:26;23633.81;;;-147.39;75.68
3524;BME280;1776;53.330;11.498;2023-04-26T04:07:52;23668.38;;;-147.39;75.59
3524;BME280;1776;53.330;11.498;2023-04-26T04:10:17;23664.31;;;-147.39;76.21
3524;BME280;1776;53.330;11.498;2023-04-26T04:12:42;23631.78;;;-147.39;75.90
3524;BME280;1776;53.330;11.498;2023-04-26T04:15:08;23603.31;;;-147.39;76.14
3524;BME280;1776;53.330;11.498;2023-04-26T04:17:34;23605.34;;;-147.39;76.06
3524;BME280;1776;53.330;11.498;2023-04-26T04:20:01;23643.97;;;-147.39;75.89
3524;BME280;1776;53.330;11.498;2023-04-26T04:22:27;23607.38;;;-147.39;76.20
3524;BME280;1776;53.330;11.498;2023-04-26T04:24:52;23597.22;;;-147.39;76.31
3524;BME280;1776;53.330;11.498;2023-04-26T04:27:18;23613.47;;;-147.39;76.01
3524;BME280;1776;53.330;11.498;2023-04-26T04:29:45;23652.13;;;-147.39;75.80
3524;BME280;1776;53.330;11.498;2023-04-26T04:32:11;23619.59;;;-147.39;75.26
3524;BME280;1776;53.330;11.498;2023-04-26T04:34:37;23676.50;;;-147.39;75.33
3524;BME280;1776;53.330;11.498;2023-04-26T04:37:03;23603.31;;;-147.39;75.21
3524;BME280;1776;53.330;11.498;2023-04-26T04:39:28;23646.00;;;-147.39;74.99
3524;BME280;1776;53.330;11.498;2023-04-26T04:41:54;23619.59;;;-147.39;75.21
3524;BME280;1776;53.330;11.498;2023-04-26T04:44:19;23607.38;;;-147.39;75.05
3524;BME280;1776;53.330;11.498;2023-04-26T04:46:44;23646.00;;;-147.39;75.30
3524;BME280;1776;53.330;11.498;2023-04-26T04:49:10;23619.59;;;-147.39;75.37
3524;BME280;1776;53.330;11.498;2023-04-26T04:51:36;23595.19;;;-147.39;75.58
3524;BME280;1776;53.330;11.498;2023-04-26T04:54:12;23635.84;;;-147.39;75.18
3524;BME280;1776;53.330;11.498;2023-04-26T04:56:38;23629.75;;;-147.39;75.41
3524;BME280;1776;53.330;11.498;2023-04-26T04:59:04;23631.78;;;-147.39;75.25
3524;BME280;1776;53.330;11.498;2023-04-26T05:01:30;23637.88;;;-147.39;75.32
3524;BME280;1776;53.330;11.498;2023-04-26T05:03:57;23648.03;;;-147.39;75.26
3524;BME280;1776;53.330;11.498;2023-04-26T05:06:22;23633.81;;;-147.39;75.15
3524;BME280;1776;53.330;11.498;2023-04-26T05:08:48;23650.09;;;-147.39;74.66
3524;BME280;1776;53.330;11.498;2023-04-26T05:11:13;23635.84;;;-147.39;74.91
3524;BME280;1776;53.330;11.498;2023-04-26T05:13:38;23633.81;;;-147.39;75.04
3524;BME280;1776;53.330;11.498;2023-04-26T05:16:04;23652.13;;;-147.39;74.99
3524;BME280;1776;53.330;11.498;2023-04-26T05:18:29;23666.34;;;-147.39;74.75
3524;BME280;1776;53.330;11.498;2023-04-26T05:20:56;23680.56;;;-147.39;74.87
3524;BME280;1776;53.330;11.498;2023-04-26T05:23:22;23635.84;;;-147.39;74.64
3524;BME280;1776;53.330;11.498;2023-04-26T05:25:47;23672.44;;;-147.39;74.81
3524;BME280;1776;53.330;11.498;2023-04-26T05:28:12;23646.00;;;-147.39;74.63
3524;BME280;1776;53.330;11.498;2023-04-26T05:30:38;23674.47;;;-147.39;74.42
3524;BME280;1776;53.330;11.498;2023-04-26T05:33:03;23609.41;;;-147.39;74.37
3524;BME280;1776;53.330;11.498;2023-04-26T05:35:29;23743.59;;;-147.39;74.07
3524;BME280;1776;53.330;11.498;2023-04-26T05:37:54;23692.78;;;-147.39;73.74
3524;BME280;1776;53.330;11.498;2023-04-26T05:40:19;23700.91;;;-147.39;73.52
3524;BME280;1776;53.330;11.498;2023-04-26T05:42:45;23694.81;;;-147.39;73.39
3524;BME280;1776;53.330;11.498;2023-04-26T05:45:11;23694.81;;;-147.39;73.10
3524;BME280;1776;53.330;11.498;2023-04-26T05:47:36;23707.00;;;-147.39;73.26
3524;BME280;1776;53.330;11.498;2023-04-26T05:50:02;23501.66;;;-147.39;72.95
3524;BME280;1776;53.330;11.498;2023-04-26T05:52:27;23698.88;;;-147.39;72.70
3524;BME280;1776;53.330;11.498;2023-04-26T05:54:52;23735.47;;;-147.39;72.55
3524;BME280;1776;53.330;11.498;2023-04-26T05:57:18;23772.06;;;-147.39;72.79
3524;BME280;1776;53.330;11.498;2023-04-26T05:59:43;23711.06;;;-147.39;72.80
3524;BME280;1776;53.330;11.498;2023-04-26T06:02:08;23759.88;;;-147.39;72.88
3524;BME280;1776;53.330;11.498;2023-04-26T06:04:34;23698.88;;;-147.39;72.76
3524;BME280;1776;53.330;11.498;2023-04-26T06:06:59;23684.63;;;-147.39;73.67
3524;BME280;1776;53.330;11.498;2023-04-26T06:09:25;23676.50;;;-147.39;74.11
3524;BME280;1776;53.330;11.498;2023-04-26T06:11:51;23698.88;;;-147.39;74.77
3524;BME280;1776;53.330;11.498;2023-04-26T06:14:16;23672.44;;;-147.39;74.82
3524;BME280;1776;53.330;11.498;2023-04-26T06:16:41;23692.78;;;-147.39;75.02
3524;BME280;1776;53.330;11.498;2023-04-26T06:19:06;23717.16;;;-147.39;74.77
3524;BME280;1776;53.330;11.498;2023-04-26T06:21:32;23698.88;;;-147.39;74.41
3524;BME280;1776;53.330;11.498;2023-04-26T06:23:57;23666.34;;;-147.39;74.72
3524;BME280;1776;53.330;11.498;2023-04-26T06:26:22;23664.31;;;-147.39;74.28
3524;BME280;1776;53.330;11.498;2023-04-26T06:28:47;23688.72;;;-147.39;73.90
3524;BME280;1776;53.330;11.498;2023-04-26T06:31:13;23662.28;;;-147.39;73.69
3524;BME280;1776;53.330;11.498;2023-04-26T06:33:38;23727.34;;;-147.39;73.29
3524;BME280;1776;53.330;11.498;2023-04-26T06:36:04;23698.88;;;-147.39;73.10
3524;BME280;1776;53.330;11.498;2023-04-26T06:38:29;23672.44;;;-147.39;72.86
3524;BME280;1776;53.330;11.498;2023-04-26T06:40:54;23696.84;;;-147.39;72.91
3524;BME280;1776;53.330;11.498;2023-04-26T06:43:19;23721.25;;;-147.39;72.89
3524;BME280;1776;53.330;11.498;2023-04-26T06:45:45;23711.06;;;-147.39;72.39
3524;BME280;1776;53.330;11.498;2023-04-26T06:48:10;23729.38;;;-147.39;72.15
3524;BME280;1776;53.330;11.498;2023-04-26T06:50:36;23749.69;;;-147.39;71.25
3524;BME280;1776;53.330;11.498;2023-04-26T06:53:03;23719.19;;;-147.39;75.67
3524;BME280;1776;53.330;11.498;2023-04-26T06:55:28;23733.44;;;-147.39;74.65
3524;BME280;1776;53.330;11.498;2023-04-26T06:57:53;23873.72;;;-147.39;69.77
3524;BME280;1776;53.330;11.498;2023-04-26T07:00:19;23898.13;;;-147.39;68.15
3524;BME280;1776;53.330;11.498;2023-04-26T07:02:45;23839.16;;;-147.39;67.90
3524;BME280;1776;53.330;11.498;2023-04-26T07:05:10;23906.25;;;-147.39;67.62
3524;BME280;1776;53.330;11.498;2023-04-26T07:07:36;23851.34;;;-147.39;67.10
3524;BME280;1776;53.330;11.498;2023-04-26T07:10:01;23918.44;;;-147.39;67.15
3524;BME280;1776;53.330;11.498;2023-04-26T07:12:27;23383.75;;;-147.39;67.03
3524;BME280;1776;53.330;11.498;2023-04-26T07:14:52;23908.28;;;-147.39;67.01
3524;BME280;1776;53.330;11.498;2023-04-26T07:17:17;23918.44;;;-147.39;66.61
3524;BME280;1776;53.330;11.498;2023-04-26T07:19:43;23881.84;;;-147.39;65.74
3524;BME280;1776;53.330;11.498;2023-04-26T07:22:09;23961.16;;;-147.39;65.72
3524;BME280;1776;53.330;11.498;2023-04-26T07:24:35;23969.28;;;-147.39;65.62
3524;BME280;1776;53.330;11.498;2023-04-26T07:27:00;23944.88;;;-147.39;65.07
3524;BME280;1776;53.330;11.498;2023-04-26T07:29:26;23973.34;;;-147.39;64.75
3524;BME280;1776;53.330;11.498;2023-04-26T07:31:51;23993.69;;;-147.39;64.07
3524;BME280;1776;53.330;11.498;2023-04-26T07:34:16;24016.03;;;-147.39;64.17
3524;BME280;1776;53.330;11.498;2023-04-26T07:36:42;24009.94;;;-147.39;64.03
3524;BME280;1776;53.330;11.498;2023-04-26T07:39:07;23995.72;;;-147.39;63.22
3524;BME280;1776;53.330;11.498;2023-04-26T07:41:34;24077.03;;;-147.39;62.32
3524;BME280;1776;53.330;11.498;2023-04-26T07:44:00;24042.47;;;-147.39;61.53
3524;BME280;1776;53.330;11.498;2023-04-26T07:46:25;24085.19;;;-147.39;61.63
3524;BME280;1776;53.330;11.498;2023-04-26T07:48:50;24093.31;;;-147.39;61.74
3524;BME280;1776;53.330;11.498;2023-04-26T07:51:15;24087.22;;;-147.39;61.51
3524;BME280;1776;53.330;11.498;2023-04-26T07:53:41;24144.13;;;-147.39;61.64
3524;BME280;1776;53.330;11.498;2023-04-26T07:56:07;24077.03;;;-147.39;61.43
3524;BME280;1776;53.330;11.498;2023-04-26T07:58:33;24101.44;;;-147.39;61.40
3524;BME280;1776;53.330;11.498;2023-04-26T08:01:00;24123.81;;;-147.39;60.46
3524;BME280;1776;53.330;11.498;2023-04-26T08:03:25;24136.00;;;-147.39;61.84
3524;BME280;1776;53.330;11.498;2023-04-26T08:05:54;24158.38;;;-147.39;59.16
3524;BME280;1776;53.330;11.498;2023-04-26T08:08:20;24150.25;;;-147.39;59.29
3524;BME280;1776;53.330;11.498;2023-04-26T08:10:46;24227.50;;;-147.39;58.16
3524;BME280;1776;53.330;11.498;2023-04-26T08:13:11;24207.16;;;-147.39;59.41
3524;BME280;1776;53.330;11.498;2023-04-26T08:15:37;24199.03;;;-147.39;58.42
3524;BME280;1776;53.330;11.498;2023-04-26T08:18:02;24201.06;;;-147.39;58.94
3524;BME280;1776;53.330;11.498;2023-04-26T08:20:27;24233.59;;;-147.39;58.46
3524;BME280;1776;53.330;11.498;2023-04-26T08:22:56;24237.66;;;-147.39;57.50
3524;BME280;1776;53.330;11.498;2023-04-26T08:25:22;24231.56;;;-147.39;58.61
3524;BME280;1776;53.330;11.498;2023-04-26T08:27:47;24274.28;;;-147.39;56.38
3524;BME280;1776;53.330;11.498;2023-04-26T08:30:13;24306.81;;;-147.39;56.19
3524;BME280;1776;53.330;11.498;2023-04-26T08:32:38;24349.50;;;-147.39;55.57
3524;BME280;1776;53.330;11.498;2023-04-26T08:35:05;24398.31;;;-147.39;54.45
3524;BME280;1776;53.330;11.498;2023-04-26T08:37:30;24404.41;;;-147.39;54.61
3524;BME280;1776;53.330;11.498;2023-04-26T08:39:55;24377.97;;;-147.39;54.87
3524;BME280;1776;53.330;11.498;2023-04-26T08:42:25;24434.91;;;-147.39;54.55
3524;BME280;1776;53.330;11.498;2023-04-26T08:44:51;24493.88;;;-147.39;52.52
3524;BME280;1776;53.330;11.498;2023-04-26T08:47:21;24477.63;;;-147.39;52.62
3524;BME280;1776;53.330;11.498;2023-04-26T08:49:53;24528.44;;;-147.39;51.08
3524;BME280;1776;53.330;11.498;2023-04-26T08:52:26;24510.16;;;-147.39;51.45
3524;BME280;1776;53.330;11.498;2023-04-26T08:54:53;24526.41;;;-147.39;50.57
3524;BME280;1776;53.330;11.498;2023-04-26T08:57:20;24622.00;;;-147.39;49.70
3524;BME280;1776;53.330;11.498;2023-04-26T08:59:45;24589.47;;;-147.39;49.97
3524;BME280;1776;53.330;11.498;2023-04-26T09:02:19;24534.56;;;-147.39;50.70
3524;BME280;1776;53.330;11.498;2023-04-26T09:04:45;24583.34;;;-147.39;50.86
3524;BME280;1776;53.330;11.498;2023-04-26T09:07:23;24619.97;;;-147.39;48.25
3524;BME280;1776;53.330;11.498;2023-04-26T09:09:53;24591.50;;;-147.39;49.13
3524;BME280;1776;53.330;11.498;2023-04-26T09:12:19;24689.09;;;-147.39;48.42
3524;BME280;1776;53.330;11.498;2023-04-26T09:14:46;24683.00;;;-147.39;48.23
3524;BME280;1776;53.330;11.498;2023-04-26T09:17:43;24705.38;;;-147.39;49.18
3524;BME280;1776;53.330;11.498;2023-04-26T09:20:29;24703.34;;;-147.39;48.19
3524;BME280;1776;53.330;11.498;2023-04-26T09:23:04;24723.66;;;-147.39;49.03
3524;BME280;1776;53.330;11.498;2023-04-26T09:25:30;24768.41;;;-147.39;47.39
3524;BME280;1776;53.330;11.498;2023-04-26T09:27:57;24845.69;;;-147.39;46.44
3524;BME280;1776;53.330;11.498;2023-04-26T09:30:23;24996.19;;;-147.39;45.75
3524;BME280;1776;53.330;11.498;2023-04-26T09:35:24;24888.41;;;-147.39;43.53
3524;BME280;1776;53.330;11.498;2023-04-26T09:37:55;24866.03;;;-147.39;44.26
3524;BME280;1776;53.330;11.498;2023-04-26T09:40:21;24851.78;;;-147.39;45.45
3524;BME280;1776;53.330;11.498;2023-04-26T09:42:58;24847.72;;;-147.39;46.17
3524;BME280;1776;53.330;11.498;2023-04-26T09:45:25;24839.59;;;-147.39;47.07
3524;BME280;1776;53.330;11.498;2023-04-26T09:47:50;24880.25;;;-147.39;45.57
3524;BME280;1776;53.330;11.498;2023-04-26T09:50:27;24906.69;;;-147.39;44.98
3524;BME280;1776;53.330;11.498;2023-04-26T09:52:53;24920.94;;;-147.39;45.49
3524;BME280;1776;53.330;11.498;2023-04-26T09:55:28;24916.88;;;-147.39;43.89
3524;BME280;1776;53.330;11.498;2023-04-26T09:57:55;24925.00;;;-147.39;44.20
3524;BME280;1776;53.330;11.498;2023-04-26T10:00:21;24965.69;;;-147.39;43.45
3524;BME280;1776;53.330;11.498;2023-04-26T10:02:48;25008.38;;;-147.39;43.27
3524;BME280;1776;53.330;11.498;2023-04-26T10:05:13;24969.75;;;-147.39;43.77
3524;BME280;1776;53.330;11.498;2023-04-26T10:07:39;24971.78;;;-147.39;43.69
3524;BME280;1776;53.330;11.498;2023-04-26T10:10:06;24983.97;;;-147.39;44.13
3524;BME280;1776;53.330;11.498;2023-04-26T10:12:33;25069.41;;;-147.39;43.17
3524;BME280;1776;53.330;11.498;2023-04-26T10:14:58;25081.59;;;-147.39;42.67
3524;BME280;1776;53.330;11.498;2023-04-26T10:17:23;25138.53;;;-147.39;41.20
3524;BME280;1776;53.330;11.498;2023-04-26T10:19:55;25162.94;;;-147.39;40.04
3524;BME280;1776;53.330;11.498;2023-04-26T10:22:24;25183.28;;;-147.39;40.03
3524;BME280;1776;53.330;11.498;2023-04-26T10:24:50;25138.53;;;-147.39;39.49
3524;BME280;1776;53.330;11.498;2023-04-26T10:30:19;25012.44;;;-147.39;44.62
3524;BME280;1776;53.330;11.498;2023-04-26T10:35:20;24754.19;;;-147.39;51.57
3524;BME280;1776;53.330;11.498;2023-04-26T10:38:15;24752.13;;;-147.39;50.92
3524;BME280;1776;53.330;11.498;2023-04-26T10:40:40;24750.09;;;-147.39;50.84
3524;BME280;1776;53.330;11.498;2023-04-26T10:45:42;24782.66;;;-147.39;48.71
3524;BME280;1776;53.330;11.498;2023-04-26T10:48:15;24725.69;;;-147.39;49.35
3524;BME280;1776;53.330;11.498;2023-04-26T10:54:03;24731.81;;;-147.39;49.84
3524;BME280;1776;53.330;11.498;2023-04-26T10:59:06;24788.75;;;-147.39;49.33
3524;BME280;1776;53.330;11.498;2023-04-26T11:01:32;24772.47;;;-147.39;48.85
3524;BME280;1776;53.330;11.498;2023-04-26T11:06:24;24931.09;;;-147.39;45.28
3524;BME280;1776;53.330;11.498;2023-04-26T11:08:49;24904.66;;;-147.39;45.67
3524;BME280;1776;53.330;11.498;2023-04-26T11:11:16;24996.19;;;-147.39;43.79
3524;BME280;1776;53.330;11.498;2023-04-26T11:13:44;25010.41;;;-147.39;42.97
3524;BME280;1776;53.330;11.498;2023-04-26T11:16:14;25016.53;;;-147.39;42.78
3524;BME280;1776;53.330;11.498;2023-04-26T11:18:44;25030.75;;;-147.39;42.11
3524;BME280;1776;53.330;11.498;2023-04-26T11:21:10;25020.59;;;-147.39;41.89
3524;BME280;1776;53.330;11.498;2023-04-26T11:23:37;25075.50;;;-147.39;41.55
3524;BME280;1776;53.330;11.498;2023-04-26T11:26:03;25071.44;;;-147.39;41.48
3524;BME280;1776;53.330;11.498;2023-04-26T11:28:30;25032.78;;;-147.39;41.70
3524;BME280;1776;53.330;11.498;2023-04-26T11:30:56;25040.94;;;-147.39;42.54
3524;BME280;1776;53.330;11.498;2023-04-26T11:33:22;25038.88;;;-147.39;41.94
3524;BME280;1776;53.330;11.498;2023-04-26T11:35:48;25059.22;;;-147.39;41.75
3524;BME280;1776;53.330;11.498;2023-04-26T11:38:14;25045.00;;;-147.39;42.43
3524;BME280;1776;53.330;11.498;2023-04-26T11:40:40;25045.00;;;-147.39;41.82
3524;BME280;1776;53.330;11.498;2023-04-26T11:43:06;24896.53;;;-147.39;46.05
3524;BME280;1776;53.330;11.498;2023-04-26T11:45:33;24796.88;;;-147.39;50.77
3524;BME280;1776;53.330;11.498;2023-04-26T11:48:00;24784.69;;;-147.39;55.28
3524;BME280;1776;53.330;11.498;2023-04-26T11:50:26;24705.38;;;-147.39;57.12
3524;BME280;1776;53.330;11.498;2023-04-26T11:52:56;24670.78;;;-147.39;57.89
3524;BME280;1776;53.330;11.498;2023-04-26T11:55:27;24678.94;;;-147.39;57.90
3524;BME280;1776;53.330;11.498;2023-04-26T11:57:52;24652.50;;;-147.39;58.52
3524;BME280;1776;53.330;11.498;2023-04-26T12:00:18;24644.34;;;-147.39;57.71
3524;BME280;1776;53.330;11.498;2023-04-26T12:02:45;24691.13;;;-147.39;56.80
3524;BME280;1776;53.330;11.498;2023-04-26T12:05:24;24707.41;;;-147.39;54.98
3524;BME280;1776;53.330;11.498;2023-04-26T12:07:51;24707.41;;;-147.39;53.65
3524;BME280;1776;53.330;11.498;2023-04-26T12:10:23;24683.00;;;-147.39;53.64
3524;BME280;1776;53.330;11.498;2023-04-26T12:12:49;24766.38;;;-147.39;53.44
3524;BME280;1776;53.330;11.498;2023-04-26T12:15:16;24719.59;;;-147.39;52.73
3524;BME280;1776;53.330;11.498;2023-04-26T12:17:55;24727.75;;;-147.39;51.77
3524;BME280;1776;53.330;11.498;2023-04-26T12:20:28;24774.50;;;-147.39;51.04
3524;BME280;1776;53.330;11.498;2023-04-26T12:23:01;24796.88;;;-147.39;52.13
3524;BME280;1776;53.330;11.498;2023-04-26T12:25:27;24811.13;;;-147.39;49.53
3524;BME280;1776;53.330;11.498;2023-04-26T12:27:53;24849.75;;;-147.39;50.79
3524;BME280;1776;53.330;11.498;2023-04-26T12:30:19;24988.03;;;-147.39;49.29
3524;BME280;1776;53.330;11.498;2023-04-26T12:32:45;25018.56;;;-147.39;47.48
3524;BME280;1776;53.330;11.498;2023-04-26T12:35:10;25077.53;;;-147.39;46.10
3524;BME280;1776;53.330;11.498;2023-04-26T12:37:36;25047.03;;;-147.39;45.17
3524;BME280;1776;53.330;11.498;2023-04-26T12:40:01;25065.31;;;-147.39;44.81
3524;BME280;1776;53.330;11.498;2023-04-26T12:42:26;25032.78;;;-147.39;44.63
3524;BME280;1776;53.330;11.498;2023-04-26T12:44:51;25008.38;;;-147.39;44.72
3524;BME280;1776;53.330;11.498;2023-04-26T12:47:17;25034.81;;;-147.39;44.71
3524;BME280;1776;53.330;11.498;2023-04-26T12:49:42;25034.81;;;-147.39;43.82
3524;BME280;1776;53.330;11.498;2023-04-26T12:52:07;25036.84;;;-147.39;44.66
3524;BME280;1776;53.330;11.498;2023-04-26T12:54:33;25061.25;;;-147.39;43.73
3524;BME280;1776;53.330;11.498;2023-04-26T12:56:58;24981.94;;;-147.39;43.08
3524;BME280;1776;53.330;11.498;2023-04-26T12:59:23;25006.34;;;-147.39;42.13
3524;BME280;1776;53.330;11.498;2023-04-26T13:01:49;25020.59;;;-147.39;42.50
3524;BME280;1776;53.330;11.498;2023-04-26T13:04:14;25030.75;;;-147.39;42.10